Albuquerque, NM

11:46 PM MDT on September 18, 2014 (GMT -0600)
Santa Fe Municipal | Change Station
CLOSE
Current Station
Airport
Location: Santa Fe,
Elevation: 6345 ft
Nearby Weather Stations

Elev 6345 ft 35.62 °N, 106.09 °W | Updated 53 minutes ago

Mostly Cloudy
Mostly Cloudy
64 °F
Feels Like 64 °F
N
15
Wind Variable Wind from SSE

Today
High -- | Low -- °F
--% Chance of Precip.
Yesterday
High -- | Low -- °F
Precip. -- in
6:51 AM 7:09 PM
Waning Crescent, 21% visible
Pressure 29.85 in
Visibility 10.0 miles
Clouds Clear
Dew Point 55 °F
Humidity 73%
Rainfall 0.00 in
Snow Depth 0 in , 1 in , 0 in
UV 0 out of 12
Pollen 1.40 out of 12
Air Quality Not available.
Flu Activity Not available.
METAR KSAF 190453Z AUTO 15013KT 10SM CLR 18/13 A3013 RMK AO2 SLP107 T01780128

More Conditions Fewer Conditions

Pressure 29.85 in
Visibility 10.0 miles
Clouds Clear
Dew Point 55 °F
Humidity 73%
Rainfall 0.00 in
Snow Depth 0 in , 1 in , 0 in
UV 0 out of 12
Pollen 1.40 out of 12
Air Quality Not available.
Flu Activity Not available.
METAR KSAF 190453Z AUTO 15013KT 10SM CLR 18/13 A3013 RMK AO2 SLP107 T01780128

More Conditions Fewer Conditions

10-Day Weather Forecast

Almanac

Astronomy

Sep. 18, 2014 Rise Set
Actual Time 6:51 AM MDT 7:09 PM MDT
Civil Twilight 6:26 AM MDT 7:34 PM MDT
Nautical Twilight 5:56 AM MDT 8:04 PM MDT
Astronomical Twilight 5:26 AM MDT 8:34 PM MDT
Moon 1:55 AM MDT (9/18) 3:54 PM MDT (9/18)
Length of Visible Light 13h 08m
Length of Day
12h 17m
Tomorrow will be 2m 11s shorter.
Waning Crescent, 21% of the Moon is Illuminated
Sep 19
Waning Crescent
Sep 24
New
Oct 1
First Quarter
Oct 8
Full
Oct 15
Last Quarter

Yesterday's Extremes

State Highs State Lows

Community

WunderPhotos

Upload Photos

1,754,573 photos uploaded!

Nearby

Snow Depth

Station Depth Elevation
Red River Pass #2 0 in 9850 ft
Frisco Divide 0 in 8000 ft
North Costilla 1 in 10600 ft
Lookout Mountain 0 in 8500 ft
Sierra Blanca 1 in 10280 ft

Earthquake Activity

City Distance Mag. Time & Date
No recent earthquake activity has been reported nearby.
Minimum magnitude displayed is 2.5.

Coastal Water Temperatures

Place Temperature
No Stations Reporting

Nearby Weather Stations